sensor_id;sensor_type;location;lat;lon;timestamp;pressure;altitude;pressure_sealevel;temperature;humidity
57574;BME280;63722;48.858;21.906;2023-03-26T00:00:27;97665.06;;;21.14;39.08
57574;BME280;63722;48.858;21.906;2023-03-26T00:02:52;97662.16;;;21.10;39.25
57574;BME280;63722;48.858;21.906;2023-03-26T00:05:18;97662.97;;;21.06;39.16
57574;BME280;63722;48.858;21.906;2023-03-26T00:07:44;97660.53;;;21.09;39.04
57574;BME280;63722;48.858;21.906;2023-03-26T00:10:09;97660.53;;;21.09;39.03
57574;BME280;63722;48.858;21.906;2023-03-26T00:12:35;97673.59;;;21.11;39.16
57574;BME280;63722;48.858;21.906;2023-03-26T00:15:01;97668.78;;;21.13;38.93
57574;BME280;63722;48.858;21.906;2023-03-26T00:17:26;97671.47;;;21.08;38.98
57574;BME280;63722;48.858;21.906;2023-03-26T00:19:52;97687.47;;;21.08;39.14
57574;BME280;63722;48.858;21.906;2023-03-26T00:22:18;97698.13;;;21.08;39.04
57574;BME280;63722;48.858;21.906;2023-03-26T00:24:43;97689.06;;;21.09;38.93
57574;BME280;63722;48.858;21.906;2023-03-26T00:27:11;97684.28;;;21.06;39.03
57574;BME280;63722;48.858;21.906;2023-03-26T00:29:36;97681.06;;;21.14;39.19
57574;BME280;63722;48.858;21.906;2023-03-26T00:32:04;97680.84;;;21.05;38.97
57574;BME280;63722;48.858;21.906;2023-03-26T00:34:30;97678.97;;;21.06;39.06
57574;BME280;63722;48.858;21.906;2023-03-26T00:36:58;97688.00;;;21.05;39.12
57574;BME280;63722;48.858;21.906;2023-03-26T00:39:26;97689.63;;;21.06;39.03
57574;BME280;63722;48.858;21.906;2023-03-26T00:41:53;97694.44;;;21.04;38.91
57574;BME280;63722;48.858;21.906;2023-03-26T00:44:19;97691.50;;;21.05;38.98
57574;BME280;63722;48.858;21.906;2023-03-26T00:46:44;97691.22;;;21.07;39.31
57574;BME280;63722;48.858;21.906;2023-03-26T00:49:11;97697.09;;;20.99;39.14
57574;BME280;63722;48.858;21.906;2023-03-26T00:51:39;97692.81;;;21.03;39.16
57574;BME280;63722;48.858;21.906;2023-03-26T00:54:05;97688.56;;;21.02;39.05
57574;BME280;63722;48.858;21.906;2023-03-26T00:56:32;97692.56;;;21.04;38.99
57574;BME280;63722;48.858;21.906;2023-03-26T00:58:58;97694.44;;;21.04;39.02
57574;BME280;63722;48.858;21.906;2023-03-26T01:01:26;97692.03;;;21.02;39.01
57574;BME280;63722;48.858;21.906;2023-03-26T01:03:52;97686.97;;;21.01;39.14
57574;BME280;63722;48.858;21.906;2023-03-26T01:06:30;97686.44;;;21.04;39.02
57574;BME280;63722;48.858;21.906;2023-03-26T01:09:16;97689.88;;;21.04;39.13
57574;BME280;63722;48.858;21.906;2023-03-26T01:11:43;97699.22;;;20.97;39.12
57574;BME280;63722;48.858;21.906;2023-03-26T01:14:12;97699.75;;;20.99;39.02
57574;BME280;63722;48.858;21.906;2023-03-26T01:21:53;97698.69;;;21.00;39.06
57574;BME280;63722;48.858;21.906;2023-03-26T01:24:18;97694.44;;;20.99;39.11
57574;BME280;63722;48.858;21.906;2023-03-26T01:29:26;97680.03;;;21.00;39.26
57574;BME280;63722;48.858;21.906;2023-03-26T01:39:56;97698.69;;;21.00;38.79
57574;BME280;63722;48.858;21.906;2023-03-26T01:42:42;97690.72;;;20.95;39.14
57574;BME280;63722;48.858;21.906;2023-03-26T01:45:20;97675.53;;;20.95;39.26
57574;BME280;63722;48.858;21.906;2023-03-26T01:47:48;97681.66;;;20.90;39.11
57574;BME280;63722;48.858;21.906;2023-03-26T01:50:13;97671.78;;;20.96;39.07
57574;BME280;63722;48.858;21.906;2023-03-26T01:52:39;97672.56;;;21.02;38.94
57574;BME280;63722;48.858;21.906;2023-03-26T01:55:06;97669.63;;;21.03;39.13
57574;BME280;63722;48.858;21.906;2023-03-26T02:05:41;97680.00;;;21.15;38.71
57574;BME280;63722;48.858;21.906;2023-03-26T02:08:28;97672.78;;;21.16;38.68
57574;BME280;63722;48.858;21.906;2023-03-26T02:11:01;97664.00;;;21.10;38.75
57574;BME280;63722;48.858;21.906;2023-03-26T02:13:29;97676.28;;;21.11;38.80
57574;BME280;63722;48.858;21.906;2023-03-26T02:15:58;97675.22;;;21.12;38.67
57574;BME280;63722;48.858;21.906;2023-03-26T02:18:24;97670.41;;;21.14;38.64
57574;BME280;63722;48.858;21.906;2023-03-26T02:21:00;97677.06;;;21.11;38.80
57574;BME280;63722;48.858;21.906;2023-03-26T02:23:25;97676.28;;;21.11;38.82
57574;BME280;63722;48.858;21.906;2023-03-26T02:25:54;97680.00;;;21.10;38.61
57574;BME280;63722;48.858;21.906;2023-03-26T02:28:19;97685.06;;;21.11;38.72
57574;BME280;63722;48.858;21.906;2023-03-26T02:30:44;97685.88;;;21.12;38.79
57574;BME280;63722;48.858;21.906;2023-03-26T02:33:11;97669.34;;;21.10;39.16
57574;BME280;63722;48.858;21.906;2023-03-26T02:35:40;97673.88;;;21.09;38.67
57574;BME280;63722;48.858;21.906;2023-03-26T02:38:09;97670.16;;;21.10;38.82
57574;BME280;63722;48.858;21.906;2023-03-26T02:40:38;97677.31;;;21.10;38.53
57574;BME280;63722;48.858;21.906;2023-03-26T02:43:04;97676.28;;;21.11;38.74
57574;BME280;63722;48.858;21.906;2023-03-26T02:45:29;97667.47;;;21.10;38.90
57574;BME280;63722;48.858;21.906;2023-03-26T02:47:55;97667.22;;;21.12;38.94
57574;BME280;63722;48.858;21.906;2023-03-26T02:50:21;97667.22;;;21.12;38.68
57574;BME280;63722;48.858;21.906;2023-03-26T02:52:48;97667.47;;;21.10;38.81
57574;BME280;63722;48.858;21.906;2023-03-26T02:55:14;97666.41;;;21.11;38.81
57574;BME280;63722;48.858;21.906;2023-03-26T02:57:39;97661.06;;;21.11;38.78
57574;BME280;63722;48.858;21.906;2023-03-26T03:00:06;97666.66;;;21.10;38.75
57574;BME280;63722;48.858;21.906;2023-03-26T03:02:33;97670.94;;;21.11;38.70
57574;BME280;63722;48.858;21.906;2023-03-26T03:04:58;97674.13;;;21.13;38.71
57574;BME280;63722;48.858;21.906;2023-03-26T03:07:26;97670.94;;;21.11;38.83
57574;BME280;63722;48.858;21.906;2023-03-26T03:09:51;97682.38;;;21.11;38.75
57574;BME280;63722;48.858;21.906;2023-03-26T03:12:16;97676.28;;;21.11;38.78
57574;BME280;63722;48.858;21.906;2023-03-26T03:14:42;97684.78;;;21.13;38.85
57574;BME280;63722;48.858;21.906;2023-03-26T03:17:07;97678.94;;;21.11;38.74
57574;BME280;63722;48.858;21.906;2023-03-26T03:19:32;97677.06;;;21.11;38.72
57574;BME280;63722;48.858;21.906;2023-03-26T03:21:58;97685.06;;;21.11;38.67
57574;BME280;63722;48.858;21.906;2023-03-26T03:24:24;97693.88;;;21.12;38.81
57574;BME280;63722;48.858;21.906;2023-03-26T03:26:51;97695.44;;;21.13;38.91
57574;BME280;63722;48.858;21.906;2023-03-26T03:29:20;97695.72;;;21.11;38.91
57574;BME280;63722;48.858;21.906;2023-03-26T03:31:45;97686.94;;;21.11;38.88
57574;BME280;63722;48.858;21.906;2023-03-26T03:34:11;97692.78;;;21.13;38.79
57574;BME280;63722;48.858;21.906;2023-03-26T03:36:36;97683.72;;;21.14;38.66
57574;BME280;63722;48.858;21.906;2023-03-26T03:39:02;97684.78;;;21.13;38.69
57574;BME280;63722;48.858;21.906;2023-03-26T03:41:29;97684.00;;;21.13;38.79
57574;BME280;63722;48.858;21.906;2023-03-26T03:43:55;97693.59;;;21.14;38.67
57574;BME280;63722;48.858;21.906;2023-03-26T03:46:21;97691.72;;;21.14;38.97
57574;BME280;63722;48.858;21.906;2023-03-26T03:48:46;97697.06;;;21.14;38.88
57574;BME280;63722;48.858;21.906;2023-03-26T03:51:16;97694.66;;;21.13;38.75
57574;BME280;63722;48.858;21.906;2023-03-26T03:53:42;97698.09;;;21.13;38.63
57574;BME280;63722;48.858;21.906;2023-03-26T03:56:10;97702.38;;;21.14;38.73
57574;BME280;63722;48.858;21.906;2023-03-26T03:58:35;97708.22;;;21.16;38.82
57574;BME280;63722;48.858;21.906;2023-03-26T04:01:01;97708.22;;;21.16;38.56
57574;BME280;63722;48.858;21.906;2023-03-26T04:03:27;97706.66;;;21.15;38.84
57574;BME280;63722;48.858;21.906;2023-03-26T04:05:54;97708.78;;;21.18;38.56
57574;BME280;63722;48.858;21.906;2023-03-26T04:08:20;97715.16;;;21.17;38.64
57574;BME280;63722;48.858;21.906;2023-03-26T04:10:46;97723.16;;;21.17;38.64
57574;BME280;63722;48.858;21.906;2023-03-26T04:13:13;97714.13;;;21.18;38.58
57574;BME280;63722;48.858;21.906;2023-03-26T04:15:39;97713.28;;;21.18;38.67
57574;BME280;63722;48.858;21.906;2023-03-26T04:18:05;97708.78;;;21.18;38.78
57574;BME280;63722;48.858;21.906;2023-03-26T04:20:41;97707.41;;;21.21;38.64
57574;BME280;63722;48.858;21.906;2023-03-26T04:23:14;97696.47;;;21.22;38.47
57574;BME280;63722;48.858;21.906;2023-03-26T04:25:48;97689.56;;;21.21;38.69
57574;BME280;63722;48.858;21.906;2023-03-26T04:30:54;97666.66;;;21.15;38.55
57574;BME280;63722;48.858;21.906;2023-03-26T04:33:20;97679.44;;;21.23;38.61
57574;BME280;63722;48.858;21.906;2023-03-26T04:35:46;97685.81;;;21.22;38.41
57574;BME280;63722;48.858;21.906;2023-03-26T04:38:13;97687.69;;;21.22;38.56
57574;BME280;63722;48.858;21.906;2023-03-26T04:40:41;97688.50;;;21.22;38.74
57574;BME280;63722;48.858;21.906;2023-03-26T04:43:16;97694.88;;;21.26;38.50
57574;BME280;63722;48.858;21.906;2023-03-26T04:45:42;97694.63;;;21.23;38.77
57574;BME280;63722;48.858;21.906;2023-03-26T04:48:10;97688.50;;;21.22;38.51
57574;BME280;63722;48.858;21.906;2023-03-26T04:50:40;97698.09;;;21.23;38.58
57574;BME280;63722;48.858;21.906;2023-03-26T04:53:09;97705.03;;;21.24;38.75
57574;BME280;63722;48.858;21.906;2023-03-26T04:55:46;97703.94;;;21.25;38.60
57574;BME280;63722;48.858;21.906;2023-03-26T04:58:13;97703.16;;;21.25;38.50
57574;BME280;63722;48.858;21.906;2023-03-26T05:00:40;97700.47;;;21.25;38.39
57574;BME280;63722;48.858;21.906;2023-03-26T05:03:09;97711.13;;;21.30;38.40
57574;BME280;63722;48.858;21.906;2023-03-26T05:05:36;97710.34;;;21.29;38.18
57574;BME280;63722;48.858;21.906;2023-03-26T05:08:01;97712.19;;;21.34;38.29
57574;BME280;63722;48.858;21.906;2023-03-26T05:10:27;97709.22;;;21.46;38.35
57574;BME280;63722;48.858;21.906;2023-03-26T05:12:52;97707.63;;;21.45;38.04
57574;BME280;63722;48.858;21.906;2023-03-26T05:15:18;97704.41;;;21.53;38.14
57574;BME280;63722;48.858;21.906;2023-03-26T05:17:44;97709.16;;;21.67;37.88
57574;BME280;63722;48.858;21.906;2023-03-26T05:20:19;97714.69;;;21.80;37.58
57574;BME280;63722;48.858;21.906;2023-03-26T05:22:46;97715.47;;;21.81;37.63
57574;BME280;63722;48.858;21.906;2023-03-26T05:25:12;97716.03;;;21.78;37.83
57574;BME280;63722;48.858;21.906;2023-03-26T05:27:38;97709.59;;;21.84;37.64
57574;BME280;63722;48.858;21.906;2023-03-26T05:30:06;97713.28;;;21.93;37.57
57574;BME280;63722;48.858;21.906;2023-03-26T05:32:31;97714.28;;;22.08;37.23
57574;BME280;63722;48.858;21.906;2023-03-26T05:34:57;97721.13;;;22.19;37.27
57574;BME280;63722;48.858;21.906;2023-03-26T05:37:23;97719.84;;;22.11;37.15
57574;BME280;63722;48.858;21.906;2023-03-26T05:39:58;97717.34;;;22.30;36.96
57574;BME280;63722;48.858;21.906;2023-03-26T05:42:24;97712.25;;;22.34;36.85
57574;BME280;63722;48.858;21.906;2023-03-26T05:44:49;97718.78;;;22.52;36.37
57574;BME280;63722;48.858;21.906;2023-03-26T05:47:15;97721.88;;;22.64;36.38
57574;BME280;63722;48.858;21.906;2023-03-26T05:49:40;97722.81;;;22.49;36.48
57574;BME280;63722;48.858;21.906;2023-03-26T05:52:06;97713.38;;;22.62;36.35
57574;BME280;63722;48.858;21.906;2023-03-26T05:54:31;97720.81;;;22.65;36.26
57574;BME280;63722;48.858;21.906;2023-03-26T05:56:57;97718.72;;;22.62;36.43
57574;BME280;63722;48.858;21.906;2023-03-26T05:59:22;97722.56;;;22.51;36.60
57574;BME280;63722;48.858;21.906;2023-03-26T06:01:49;97727.22;;;22.64;36.51
57574;BME280;63722;48.858;21.906;2023-03-26T06:04:16;97723.50;;;22.65;36.46
57574;BME280;63722;48.858;21.906;2023-03-26T06:06:42;97719.19;;;22.69;36.41
57574;BME280;63722;48.858;21.906;2023-03-26T06:09:09;97718.06;;;22.76;36.47
57574;BME280;63722;48.858;21.906;2023-03-26T06:11:38;97723.91;;;22.78;36.48
57574;BME280;63722;48.858;21.906;2023-03-26T06:14:04;97730.88;;;22.79;36.45
57574;BME280;63722;48.858;21.906;2023-03-26T06:16:29;97723.34;;;22.81;36.39
57574;BME280;63722;48.858;21.906;2023-03-26T06:18:55;97725.47;;;22.84;36.39
57574;BME280;63722;48.858;21.906;2023-03-26T06:21:21;97718.00;;;22.81;36.33
57574;BME280;63722;48.858;21.906;2023-03-26T06:23:46;97714.84;;;22.74;36.40
57574;BME280;63722;48.858;21.906;2023-03-26T06:26:13;97711.69;;;22.71;36.51
57574;BME280;63722;48.858;21.906;2023-03-26T06:28:39;97714.97;;;22.63;36.67
57574;BME280;63722;48.858;21.906;2023-03-26T06:31:05;97710.75;;;22.57;36.87
57574;BME280;63722;48.858;21.906;2023-03-26T06:33:31;97712.09;;;22.55;36.78
57574;BME280;63722;48.858;21.906;2023-03-26T06:35:57;97711.03;;;22.50;36.79
57574;BME280;63722;48.858;21.906;2023-03-26T06:38:22;97710.25;;;22.50;36.72
57574;BME280;63722;48.858;21.906;2023-03-26T06:40:48;97717.75;;;22.48;37.13
57574;BME280;63722;48.858;21.906;2023-03-26T06:43:13;97715.94;;;22.43;36.83
57574;BME280;63722;48.858;21.906;2023-03-26T06:45:38;97713.81;;;22.40;36.96
57574;BME280;63722;48.858;21.906;2023-03-26T06:48:04;97707.66;;;22.40;37.06
57574;BME280;63722;48.858;21.906;2023-03-26T06:50:30;97709.03;;;22.37;37.14
57574;BME280;63722;48.858;21.906;2023-03-26T06:52:57;97712.25;;;22.34;36.96
57574;BME280;63722;48.858;21.906;2023-03-26T06:55:23;97724.81;;;22.33;37.01
57574;BME280;63722;48.858;21.906;2023-03-26T06:57:53;97729.63;;;22.31;36.99
57574;BME280;63722;48.858;21.906;2023-03-26T07:00:19;97724.53;;;22.30;37.28
57574;BME280;63722;48.858;21.906;2023-03-26T07:02:45;97729.38;;;22.28;37.14
57574;BME280;63722;48.858;21.906;2023-03-26T07:05:11;97729.66;;;22.26;37.13
57574;BME280;63722;48.858;21.906;2023-03-26T07:07:38;97723.22;;;22.27;37.10
57574;BME280;63722;48.858;21.906;2023-03-26T07:10:04;97733.88;;;22.27;37.07
57574;BME280;63722;48.858;21.906;2023-03-26T07:12:29;97731.50;;;22.26;37.34
57574;BME280;63722;48.858;21.906;2023-03-26T07:14:55;97728.03;;;22.25;37.27
57574;BME280;63722;48.858;21.906;2023-03-26T07:17:20;97726.16;;;22.26;37.13
57574;BME280;63722;48.858;21.906;2023-03-26T07:19:46;97721.63;;;22.26;37.28
57574;BME280;63722;48.858;21.906;2023-03-26T07:22:19;97730.16;;;22.28;37.16
57574;BME280;63722;48.858;21.906;2023-03-26T07:24:45;97727.53;;;22.23;37.11
57574;BME280;63722;48.858;21.906;2023-03-26T07:30:08;97707.22;;;22.22;37.37
57574;BME280;63722;48.858;21.906;2023-03-26T07:32:58;97707.19;;;22.27;37.40
57574;BME280;63722;48.858;21.906;2023-03-26T07:46:00;97701.84;;;22.27;37.19
57574;BME280;63722;48.858;21.906;2023-03-26T07:48:30;97698.38;;;22.32;37.05
57574;BME280;63722;48.858;21.906;2023-03-26T07:51:01;97699.19;;;22.32;36.97
57574;BME280;63722;48.858;21.906;2023-03-26T07:53:28;97688.72;;;22.36;37.06
57574;BME280;63722;48.858;21.906;2023-03-26T07:56:17;97690.28;;;22.42;36.99
57574;BME280;63722;48.858;21.906;2023-03-26T08:10:05;97684.66;;;22.44;36.93
57574;BME280;63722;48.858;21.906;2023-03-26T08:13:02;97682.75;;;22.49;37.03
57574;BME280;63722;48.858;21.906;2023-03-26T08:15:37;97675.59;;;22.45;36.85
57574;BME280;63722;48.858;21.906;2023-03-26T08:20:47;97681.94;;;22.49;36.97
57574;BME280;63722;48.858;21.906;2023-03-26T08:23:28;97674.97;;;22.53;37.04
57574;BME280;63722;48.858;21.906;2023-03-26T08:31:34;97664.63;;;22.46;36.79
57574;BME280;63722;48.858;21.906;2023-03-26T08:34:00;97663.00;;;22.45;37.06
57574;BME280;63722;48.858;21.906;2023-03-26T08:36:26;97661.13;;;22.46;36.88
57574;BME280;63722;48.858;21.906;2023-03-26T08:38:52;97662.72;;;22.47;37.14
57574;BME280;63722;48.858;21.906;2023-03-26T08:47:23;97658.75;;;22.44;36.88
57574;BME280;63722;48.858;21.906;2023-03-26T08:52:36;97650.22;;;22.42;37.05
57574;BME280;63722;48.858;21.906;2023-03-26T09:01:02;97653.13;;;22.46;37.14
57574;BME280;63722;48.858;21.906;2023-03-26T09:09:07;97645.34;;;22.49;37.02
57574;BME280;63722;48.858;21.906;2023-03-26T09:36:39;97617.25;;;22.52;37.02
57574;BME280;63722;48.858;21.906;2023-03-26T09:45:21;97611.13;;;22.51;36.92
57574;BME280;63722;48.858;21.906;2023-03-26T09:50:50;97612.47;;;22.49;37.09
57574;BME280;63722;48.858;21.906;2023-03-26T10:06:45;97612.72;;;22.52;37.13
57574;BME280;63722;48.858;21.906;2023-03-26T10:09:34;97612.72;;;22.52;36.96
57574;BME280;63722;48.858;21.906;2023-03-26T10:14:48;97618.31;;;22.56;36.99
57574;BME280;63722;48.858;21.906;2023-03-26T10:20:42;97604.94;;;22.56;36.87
57574;BME280;63722;48.858;21.906;2023-03-26T10:28:51;97598.28;;;22.53;36.78
57574;BME280;63722;48.858;21.906;2023-03-26T10:53:42;97565.38;;;22.58;36.78
57574;BME280;63722;48.858;21.906;2023-03-26T10:58:40;97555.78;;;22.57;36.69
57574;BME280;63722;48.858;21.906;2023-03-26T11:03:54;97546.94;;;22.57;36.92
57574;BME280;63722;48.858;21.906;2023-03-26T11:19:41;97540.75;;;22.61;36.90
57574;BME280;63722;48.858;21.906;2023-03-26T11:31:04;97531.44;;;22.59;36.75
57574;BME280;63722;48.858;21.906;2023-03-26T11:33:42;97531.44;;;22.59;36.89
57574;BME280;63722;48.858;21.906;2023-03-26T11:36:11;97524.50;;;22.58;36.76
57574;BME280;63722;48.858;21.906;2023-03-26T11:38:43;97530.06;;;22.61;36.72
57574;BME280;63722;48.858;21.906;2023-03-26T11:41:15;97523.16;;;22.60;36.52
57574;BME280;63722;48.858;21.906;2023-03-26T11:43:43;97527.19;;;22.58;37.02
57574;BME280;63722;48.858;21.906;2023-03-26T11:46:11;97523.44;;;22.59;36.83
57574;BME280;63722;48.858;21.906;2023-03-26T11:48:44;97523.16;;;22.60;36.81
57574;BME280;63722;48.858;21.906;2023-03-26T11:51:34;97513.47;;;22.64;36.65
57574;BME280;63722;48.858;21.906;2023-03-26T11:54:01;97516.50;;;22.58;36.88
57574;BME280;63722;48.858;21.906;2023-03-26T12:04:13;97505.53;;;22.59;36.82
57574;BME280;63722;48.858;21.906;2023-03-26T12:09:17;97497.00;;;22.57;36.89
57574;BME280;63722;48.858;21.906;2023-03-26T12:11:42;97494.84;;;22.59;36.74
57574;BME280;63722;48.858;21.906;2023-03-26T12:14:16;97483.56;;;22.62;36.59
57574;BME280;63722;48.858;21.906;2023-03-26T12:17:02;97483.00;;;22.65;36.57
57574;BME280;63722;48.858;21.906;2023-03-26T12:19:34;97479.31;;;22.61;36.60
57574;BME280;63722;48.858;21.906;2023-03-26T12:22:02;97476.91;;;22.60;36.63
57574;BME280;63722;48.858;21.906;2023-03-26T12:24:30;97477.72;;;22.60;36.56
57574;BME280;63722;48.858;21.906;2023-03-26T12:27:24;97476.28;;;22.68;36.64
57574;BME280;63722;48.858;21.906;2023-03-26T12:30:32;97472.53;;;22.69;36.45
57574;BME280;63722;48.858;21.906;2023-03-26T12:33:03;97476.06;;;22.64;36.71
57574;BME280;63722;48.858;21.906;2023-03-26T12:35:34;97473.66;;;22.63;36.54
57574;BME280;63722;48.858;21.906;2023-03-26T12:40:43;97460.84;;;22.65;36.46
57574;BME280;63722;48.858;21.906;2023-03-26T12:43:27;97460.47;;;22.71;36.60
57574;BME280;63722;48.858;21.906;2023-03-26T12:45:55;97455.78;;;22.63;36.52
57574;BME280;63722;48.858;21.906;2023-03-26T12:48:23;97462.69;;;22.64;36.74
57574;BME280;63722;48.858;21.906;2023-03-26T12:56:15;97451.44;;;22.67;36.42
57574;BME280;63722;48.858;21.906;2023-03-26T12:59:14;97448.19;;;22.70;36.51
57574;BME280;63722;48.858;21.906;2023-03-26T13:06:48;97448.84;;;22.62;36.55
57574;BME280;63722;48.858;21.906;2023-03-26T13:09:41;97436.50;;;22.66;36.46
57574;BME280;63722;48.858;21.906;2023-03-26T13:20:13;97423.75;;;22.58;36.64
57574;BME280;63722;48.858;21.906;2023-03-26T13:25:57;97413.31;;;22.62;36.55
57574;BME280;63722;48.858;21.906;2023-03-26T13:31:14;97394.91;;;22.60;36.65
57574;BME280;63722;48.858;21.906;2023-03-26T13:46:47;97385.88;;;22.56;36.58
57574;BME280;63722;48.858;21.906;2023-03-26T13:49:37;97374.81;;;22.63;36.38
57574;BME280;63722;48.858;21.906;2023-03-26T13:52:19;97375.47;;;22.55;36.59
57574;BME280;63722;48.858;21.906;2023-03-26T13:57:27;97370.91;;;22.55;36.57
57574;BME280;63722;48.858;21.906;2023-03-26T14:00:05;97365.00;;;22.58;36.53
57574;BME280;63722;48.858;21.906;2023-03-26T14:02:41;97369.56;;;22.58;36.38
57574;BME280;63722;48.858;21.906;2023-03-26T14:10:27;97357.06;;;22.53;36.43
57574;BME280;63722;48.858;21.906;2023-03-26T14:13:05;97355.41;;;22.57;36.69
57574;BME280;63722;48.858;21.906;2023-03-26T14:15:44;97355.69;;;22.56;36.60
57574;BME280;63722;48.858;21.906;2023-03-26T14:18:29;97352.72;;;22.57;36.45
57574;BME280;63722;48.858;21.906;2023-03-26T14:21:11;97346.28;;;22.58;36.64
57574;BME280;63722;48.858;21.906;2023-03-26T14:24:12;97346.00;;;22.60;36.46
57574;BME280;63722;48.858;21.906;2023-03-26T14:29:55;97342.25;;;22.61;36.35
57574;BME280;63722;48.858;21.906;2023-03-26T14:32:39;97348.97;;;22.58;36.53
57574;BME280;63722;48.858;21.906;2023-03-26T14:35:27;97352.44;;;22.59;36.63
57574;BME280;63722;48.858;21.906;2023-03-26T14:54:44;97349.69;;;22.45;36.60
57574;BME280;63722;48.858;21.906;2023-03-26T15:11:40;97362.75;;;22.46;36.76
57574;BME280;63722;48.858;21.906;2023-03-26T15:17:09;97357.63;;;22.50;36.64
57574;BME280;63722;48.858;21.906;2023-03-26T15:34:15;97361.44;;;22.44;36.71
57574;BME280;63722;48.858;21.906;2023-03-26T15:42:42;97350.31;;;22.37;36.85
57574;BME280;63722;48.858;21.906;2023-03-26T15:45:17;97345.50;;;22.39;36.77
57574;BME280;63722;48.858;21.906;2023-03-26T15:47:56;97347.06;;;22.40;36.57
57574;BME280;63722;48.858;21.906;2023-03-26T15:50:36;97343.34;;;22.41;36.74
57574;BME280;63722;48.858;21.906;2023-03-26T15:56:12;97343.91;;;22.38;36.63
57574;BME280;63722;48.858;21.906;2023-03-26T16:07:46;97328.47;;;22.34;36.63
57574;BME280;63722;48.858;21.906;2023-03-26T16:10:26;97321.75;;;22.37;36.63
57574;BME280;63722;48.858;21.906;2023-03-26T16:15:55;97314.59;;;22.32;36.93
57574;BME280;63722;48.858;21.906;2023-03-26T16:18:28;97314.34;;;22.29;36.88
57574;BME280;63722;48.858;21.906;2023-03-26T16:23:54;97311.66;;;22.34;36.54
57574;BME280;63722;48.858;21.906;2023-03-26T16:32:09;97308.75;;;22.30;36.89
57574;BME280;63722;48.858;21.906;2023-03-26T16:57:29;97323.94;;;22.11;37.20
57574;BME280;63722;48.858;21.906;2023-03-26T17:06:44;97322.63;;;22.08;37.03
57574;BME280;63722;48.858;21.906;2023-03-26T17:22:11;97328.91;;;21.98;37.20
57574;BME280;63722;48.858;21.906;2023-03-26T17:24:48;97339.56;;;21.98;37.38
57574;BME280;63722;48.858;21.906;2023-03-26T17:27:31;97338.75;;;21.98;37.25
57574;BME280;63722;48.858;21.906;2023-03-26T17:32:58;97337.69;;;21.99;37.16
57574;BME280;63722;48.858;21.906;2023-03-26T17:35:42;97339.03;;;21.96;37.36
57574;BME280;63722;48.858;21.906;2023-03-26T17:40:45;97347.13;;;21.91;37.44
57574;BME280;63722;48.858;21.906;2023-03-26T17:46:22;97357.28;;;21.89;37.46
57574;BME280;63722;48.858;21.906;2023-03-26T17:48:58;97346.09;;;21.87;37.52
57574;BME280;63722;48.858;21.906;2023-03-26T17:51:39;97345.81;;;21.89;37.43
57574;BME280;63722;48.858;21.906;2023-03-26T17:54:13;97352.44;;;21.91;37.30
57574;BME280;63722;48.858;21.906;2023-03-26T17:56:41;97356.75;;;21.87;37.46
57574;BME280;63722;48.858;21.906;2023-03-26T17:59:17;97356.75;;;21.87;37.37
57574;BME280;63722;48.858;21.906;2023-03-26T18:01:51;97354.16;;;21.82;37.42
57574;BME280;63722;48.858;21.906;2023-03-26T18:04:25;97354.66;;;21.84;37.43
57574;BME280;63722;48.858;21.906;2023-03-26T18:09:37;97351.72;;;21.86;37.45
57574;BME280;63722;48.858;21.906;2023-03-26T18:18:01;97343.97;;;21.84;37.40
57574;BME280;63722;48.858;21.906;2023-03-26T18:20:34;97344.84;;;21.79;37.21
57574;BME280;63722;48.858;21.906;2023-03-26T18:23:08;97345.09;;;21.83;37.34
57574;BME280;63722;48.858;21.906;2023-03-26T18:25:35;97344.34;;;21.77;37.41
57574;BME280;63722;48.858;21.906;2023-03-26T18:28:00;97343.56;;;21.77;37.37
57574;BME280;63722;48.858;21.906;2023-03-26T18:30:27;97341.66;;;21.77;37.77
57574;BME280;63722;48.858;21.906;2023-03-26T18:32:59;97339.50;;;21.79;37.38
57574;BME280;63722;48.858;21.906;2023-03-26T18:35:26;97337.13;;;21.78;37.49
57574;BME280;63722;48.858;21.906;2023-03-26T18:37:59;97338.22;;;21.77;37.48
57574;BME280;63722;48.858;21.906;2023-03-26T18:40:31;97330.72;;;21.79;37.22
57574;BME280;63722;48.858;21.906;2023-03-26T18:42:58;97338.22;;;21.77;37.46
57574;BME280;63722;48.858;21.906;2023-03-26T18:45:31;97331.78;;;21.78;37.59
57574;BME280;63722;48.858;21.906;2023-03-26T18:50:42;97335.53;;;21.77;37.43
57574;BME280;63722;48.858;21.906;2023-03-26T18:53:15;97336.34;;;21.77;37.63
57574;BME280;63722;48.858;21.906;2023-03-26T18:55:43;97335.31;;;21.73;37.31
57574;BME280;63722;48.858;21.906;2023-03-26T18:58:30;97327.53;;;21.77;37.24
57574;BME280;63722;48.858;21.906;2023-03-26T19:01:05;97333.94;;;21.76;37.62
57574;BME280;63722;48.858;21.906;2023-03-26T19:03:40;97328.63;;;21.76;37.32
57574;BME280;63722;48.858;21.906;2023-03-26T19:06:09;97327.56;;;21.72;37.38
57574;BME280;63722;48.858;21.906;2023-03-26T19:08:37;97322.78;;;21.74;37.34
57574;BME280;63722;48.858;21.906;2023-03-26T19:11:08;97319.00;;;21.75;37.43
57574;BME280;63722;48.858;21.906;2023-03-26T19:13:36;97324.91;;;21.72;37.46
57574;BME280;63722;48.858;21.906;2023-03-26T19:16:19;97324.06;;;21.76;37.21
57574;BME280;63722;48.858;21.906;2023-03-26T19:18:46;97299.66;;;21.64;37.13
57574;BME280;63722;48.858;21.906;2023-03-26T19:21:12;97305.44;;;21.71;37.47
57574;BME280;63722;48.858;21.906;2023-03-26T19:23:39;97304.94;;;21.69;37.49
57574;BME280;63722;48.858;21.906;2023-03-26T19:26:08;97294.56;;;21.68;37.44
57574;BME280;63722;48.858;21.906;2023-03-26T19:28:37;97292.41;;;21.70;37.39
57574;BME280;63722;48.858;21.906;2023-03-26T19:31:19;97290.75;;;21.74;37.44
57574;BME280;63722;48.858;21.906;2023-03-26T19:33:56;97298.22;;;21.72;37.13
57574;BME280;63722;48.858;21.906;2023-03-26T19:36:30;97295.34;;;21.68;37.67